Time;durP1;ratioP1;P1;durP2;ratioP2;P2;SDS_P1;SDS_P2;PMS_P1;PMS_P2;Temp;Humidity;BMP_temperature;BMP_pressure;BME280_temperature;BME280_humidity;BME280_pressure;Samples;Min_cycle;Max_cycle;Signal;HPM_P1;HPM_P2
2023/07/07 04:01:00;;;;;;;2.58;2.58;;;13.20;99.90;;;;;;5757108;23;20326;-68
2023/07/07 04:03:27;;;;;;;3.45;3.25;;;13.20;99.90;;;;;;4989442;28;20211;-68
2023/07/07 04:05:55;;;;;;;3.50;3.20;;;13.20;99.90;;;;;;4991676;28;20588;-68
2023/07/07 04:08:23;;;;;;;3.92;3.72;;;13.30;99.90;;;;;;4991499;28;20409;-69
2023/07/07 04:11:00;;;;;;;3.97;3.60;;;13.30;99.90;;;;;;4991209;28;20302;-69
2023/07/07 04:13:27;;;;;;;3.83;3.40;;;13.30;99.90;;;;;;4991614;28;20203;-69
2023/07/07 04:16:03;;;;;;;3.13;3.00;;;13.30;99.90;;;;;;4991385;28;20212;-69
2023/07/07 04:18:32;;;;;;;4.33;3.77;;;13.40;99.90;;;;;;4991139;28;20478;-68
2023/07/07 04:21:00;;;;;;;3.40;3.30;;;13.50;99.90;;;;;;5021758;23;20985;-72
2023/07/07 04:23:27;;;;;;;4.10;3.77;;;13.50;99.90;;;;;;5010144;28;20462;-72
2023/07/07 04:25:54;;;;;;;4.60;3.83;;;13.60;99.90;;;;;;5009365;28;20488;-72
2023/07/07 04:28:21;;;;;;;11.30;6.37;;;13.70;99.90;;;;;;5009639;28;20492;-72
2023/07/07 04:30:51;;;;;;;6.00;5.50;;;14.20;99.90;;;;;;5004655;28;20486;-72
2023/07/07 04:33:19;;;;;;;7.17;6.57;;;15.00;99.90;;;;;;4990559;28;20471;-71
2023/07/07 04:35:50;;;;;;;4.50;4.30;;;15.70;99.90;;;;;;4991828;28;20978;-71
2023/07/07 04:38:18;;;;;;;2.77;2.70;;;16.40;99.90;;;;;;4991083;28;20497;-72
2023/07/07 04:40:45;;;;;;;2.33;2.33;;;16.90;99.90;;;;;;4990209;28;21031;-72
2023/07/07 04:43:12;;;;;;;2.60;2.60;;;17.40;99.90;;;;;;4988314;28;20556;-72
2023/07/07 04:45:39;;;;;;;3.30;3.10;;;17.90;99.90;;;;;;4989748;28;20778;-72
2023/07/07 04:48:06;;;;;;;3.30;3.20;;;18.30;99.90;;;;;;4990039;28;20859;-72
2023/07/07 04:50:34;;;;;;;2.40;2.40;;;18.60;99.90;;;;;;4990163;28;20482;-72
2023/07/07 04:53:01;;;;;;;2.20;2.20;;;18.90;99.90;;;;;;4989991;28;20474;-72
2023/07/07 04:55:28;;;;;;;7.20;6.50;;;19.40;99.90;;;;;;4989388;28;20471;-72
2023/07/07 04:57:54;;;;;;;2.70;2.70;;;19.70;99.90;;;;;;4990214;28;20462;-73
2023/07/07 05:00:21;;;;;;;2.60;2.50;;;20.00;99.90;;;;;;4990235;28;20462;-72
2023/07/07 05:02:48;;;;;;;2.17;2.17;;;20.40;99.90;;;;;;4989693;28;20467;-73
2023/07/07 05:05:15;;;;;;;2.40;2.30;;;20.70;99.90;;;;;;4989986;28;20467;-72
2023/07/07 05:07:43;;;;;;;2.07;2.07;;;20.90;99.90;;;;;;4991685;28;20499;-73
2023/07/07 05:10:10;;;;;;;1.90;1.90;;;20.90;99.90;;;;;;4993846;28;20812;-72
2023/07/07 05:12:37;;;;;;;1.87;1.87;;;21.20;99.90;;;;;;4994229;28;20475;-73
2023/07/07 05:15:05;;;;;;;2.20;2.10;;;21.30;99.90;;;;;;4993583;28;20488;-72
2023/07/07 05:17:31;;;;;;;2.73;2.63;;;21.10;99.90;;;;;;4993707;28;20470;-73
2023/07/07 05:19:58;;;;;;;1.80;1.80;;;21.10;99.90;;;;;;4993894;28;20467;-72
2023/07/07 05:22:25;;;;;;;2.13;2.13;;;21.30;99.90;;;;;;4993599;28;20869;-73
2023/07/07 05:24:53;;;;;;;1.90;1.90;;;21.50;99.90;;;;;;4993805;28;20474;-72
2023/07/07 05:27:19;;;;;;;2.07;2.07;;;21.70;99.90;;;;;;4993978;28;21011;-72
2023/07/07 05:29:46;;;;;;;2.50;2.50;;;21.80;99.90;;;;;;4993675;28;20569;-71
2023/07/07 05:32:13;;;;;;;2.30;2.20;;;21.80;99.90;;;;;;4993692;28;20494;-72
2023/07/07 05:34:40;;;;;;;1.90;1.80;;;21.80;99.90;;;;;;4992867;28;20474;-72
2023/07/07 05:37:06;;;;;;;2.10;2.00;;;21.70;99.90;;;;;;4993285;28;20459;-72
2023/07/07 05:39:33;;;;;;;1.83;1.83;;;22.10;99.90;;;;;;4993043;28;20471;-71
2023/07/07 05:42:01;;;;;;;2.07;1.93;;;22.10;99.90;;;;;;4993439;28;20515;-72
2023/07/07 05:44:28;;;;;;;1.60;1.60;;;22.40;99.90;;;;;;4993116;28;20470;-71
2023/07/07 05:46:55;;;;;;;2.00;1.90;;;22.30;99.90;;;;;;4993764;28;20489;-72
2023/07/07 05:49:21;;;;;;;1.43;1.43;;;22.40;99.90;;;;;;4993373;28;20568;-71
2023/07/07 05:51:48;;;;;;;1.80;1.80;;;22.60;99.90;;;;;;4993927;28;20595;-72
2023/07/07 05:54:15;;;;;;;2.00;2.00;;;22.80;99.90;;;;;;4992856;28;20468;-72
2023/07/07 05:56:41;;;;;;;1.80;1.80;;;22.60;99.90;;;;;;4993228;28;20561;-73
2023/07/07 05:59:10;;;;;;;1.60;1.60;;;22.50;99.90;;;;;;4992896;28;20469;-72
2023/07/07 06:01:38;;;;;;;1.90;1.80;;;22.40;99.90;;;;;;4993348;28;20485;-72
2023/07/07 06:04:05;;;;;;;1.97;1.97;;;22.60;99.90;;;;;;4992788;28;20473;-72
2023/07/07 06:06:31;;;;;;;1.73;1.73;;;22.90;99.90;;;;;;4993835;28;20468;-71
2023/07/07 06:08:58;;;;;;;2.07;2.07;;;23.40;99.90;;;;;;4993266;28;20471;-71
2023/07/07 06:11:25;;;;;;;1.90;1.90;;;23.70;99.90;;;;;;4992633;28;20490;-71
2023/07/07 06:13:52;;;;;;;2.00;1.90;;;24.00;99.90;;;;;;4993160;28;20498;-73
2023/07/07 06:16:20;;;;;;;3.10;1.43;;;24.30;99.90;;;;;;4992997;28;20467;-71
2023/07/07 06:18:46;;;;;;;2.03;2.03;;;24.70;99.90;;;;;;4991739;28;20958;-71
2023/07/07 06:21:13;;;;;;;1.90;1.90;;;25.10;99.90;;;;;;4992700;28;20483;-70
2023/07/07 06:23:40;;;;;;;1.53;1.53;;;25.20;99.90;;;;;;4993070;28;20606;-70
2023/07/07 06:26:07;;;;;;;1.67;1.67;;;25.40;99.90;;;;;;4993203;28;20466;-71
2023/07/07 06:28:33;;;;;;;1.27;1.27;;;26.10;99.90;;;;;;4993125;28;20494;-71
2023/07/07 06:31:00;;;;;;;1.03;1.03;;;26.30;99.90;;;;;;4993174;28;20493;-72
2023/07/07 06:33:28;;;;;;;1.70;1.60;;;26.00;99.90;;;;;;4993362;28;20466;-72
2023/07/07 06:35:55;;;;;;;1.80;1.70;;;26.10;99.90;;;;;;4993327;28;20465;-72
2023/07/07 06:38:22;;;;;;;2.13;2.10;;;26.50;99.90;;;;;;4994151;28;20459;-73
2023/07/07 06:40:49;;;;;;;1.50;1.50;;;27.00;99.90;;;;;;4993907;28;20505;-73
2023/07/07 06:43:18;;;;;;;1.40;1.40;;;26.70;99.90;;;;;;4994322;28;20818;-74
2023/07/07 06:45:46;;;;;;;1.60;1.60;;;26.00;99.90;;;;;;4995651;28;20463;-73
2023/07/07 06:48:12;;;;;;;1.40;1.40;;;26.30;99.90;;;;;;4995930;28;20491;-73
2023/07/07 06:50:41;;;;;;;2.20;1.27;;;26.80;99.90;;;;;;4993111;28;21014;-73
2023/07/07 06:53:09;;;;;;;1.00;1.00;;;26.90;99.90;;;;;;4994328;28;20459;-73
2023/07/07 06:55:36;;;;;;;1.10;1.10;;;27.20;99.90;;;;;;4993127;28;20468;-73
2023/07/07 06:58:03;;;;;;;1.07;1.07;;;27.50;99.90;;;;;;4993814;28;20577;-73
2023/07/07 07:00:31;;;;;;;1.47;1.40;;;27.80;99.90;;;;;;4992734;28;20951;-73
2023/07/07 07:02:58;;;;;;;1.10;1.10;;;28.00;99.90;;;;;;4991985;28;20466;-73
2023/07/07 07:05:24;;;;;;;1.33;1.33;;;28.30;99.90;;;;;;4992098;28;20558;-73
2023/07/07 07:07:53;;;;;;;1.43;1.43;;;28.30;99.90;;;;;;4991937;28;20482;-73
2023/07/07 07:10:19;;;;;;;1.03;1.03;;;28.60;99.90;;;;;;4991565;28;20554;-73
2023/07/07 07:12:47;;;;;;;1.23;1.23;;;28.30;99.90;;;;;;4992057;28;20462;-73
2023/07/07 07:15:14;;;;;;;1.00;1.00;;;28.00;99.90;;;;;;4991762;28;20971;-73
2023/07/07 07:17:41;;;;;;;1.30;1.30;;;28.30;99.90;;;;;;4991792;28;20549;-73
2023/07/07 07:20:11;;;;;;;1.07;1.07;;;28.80;99.90;;;;;;4992138;28;20467;-73
2023/07/07 07:22:37;;;;;;;1.03;1.03;;;28.70;99.90;;;;;;4992268;28;20455;-73
2023/07/07 07:25:07;;;;;;;0.90;0.90;;;28.60;99.90;;;;;;4991576;28;20780;-73
2023/07/07 07:27:34;;;;;;;1.30;1.30;;;28.90;99.90;;;;;;4991734;28;20509;-73
2023/07/07 07:30:00;;;;;;;0.60;0.60;;;28.90;99.90;;;;;;4991802;28;20486;-73
2023/07/07 07:32:27;;;;;;;1.20;1.20;;;29.10;99.90;;;;;;4991043;28;20494;-74
2023/07/07 07:34:54;;;;;;;0.90;0.90;;;29.20;99.90;;;;;;4992069;28;20493;-73
2023/07/07 07:37:21;;;;;;;0.90;0.90;;;29.70;99.90;;;;;;4991429;28;20804;-73
2023/07/07 07:39:47;;;;;;;1.10;1.10;;;29.80;99.90;;;;;;4991051;28;20478;-73
2023/07/07 07:42:15;;;;;;;1.00;1.00;;;29.80;99.90;;;;;;4990535;28;20898;-73
2023/07/07 07:44:42;;;;;;;1.23;1.23;;;29.70;99.90;;;;;;4991023;28;20459;-73
2023/07/07 07:47:09;;;;;;;0.83;0.83;;;29.90;99.90;;;;;;4991409;28;20474;-73
2023/07/07 07:49:36;;;;;;;0.53;0.53;;;30.10;99.90;;;;;;4990817;28;20474;-73
2023/07/07 07:52:04;;;;;;;0.90;0.90;;;30.20;99.90;;;;;;4991229;28;20483;-73
2023/07/07 07:54:30;;;;;;;0.90;0.90;;;30.20;99.90;;;;;;4990436;28;20834;-73
2023/07/07 07:56:57;;;;;;;0.70;0.70;;;30.20;99.90;;;;;;4991034;28;20471;-73
2023/07/07 07:59:25;;;;;;;0.60;0.60;;;30.40;99.90;;;;;;4990907;28;20463;-72
2023/07/07 08:01:52;;;;;;;1.10;1.10;;;30.20;99.90;;;;;;4991187;28;20490;-72
2023/07/07 08:04:19;;;;;;;0.63;0.63;;;30.30;99.90;;;;;;4990496;28;20474;-72
2023/07/07 08:06:45;;;;;;;0.70;0.70;;;30.50;99.90;;;;;;4990954;28;20525;-72
2023/07/07 08:09:12;;;;;;;0.60;0.60;;;30.80;99.90;;;;;;4990245;28;20487;-72
2023/07/07 08:11:58;;;;;;;0.80;0.80;;;30.90;98.50;;;;;;4990978;28;20478;-72
2023/07/07 08:14:33;;;;;;;0.77;0.77;;;30.20;97.90;;;;;;4990585;28;20511;-72
2023/07/07 08:17:04;;;;;;;0.60;0.60;;;30.10;97.30;;;;;;4991339;28;20960;-72
2023/07/07 08:19:33;;;;;;;0.60;0.60;;;30.20;98.00;;;;;;4990495;28;20525;-72
2023/07/07 08:21:59;;;;;;;0.50;0.50;;;30.10;97.80;;;;;;4990762;28;20569;-73
2023/07/07 08:24:27;;;;;;;1.10;1.10;;;30.00;97.80;;;;;;4990306;28;20473;-73
2023/07/07 08:26:54;;;;;;;0.60;0.60;;;30.30;98.00;;;;;;4991227;28;20963;-73
2023/07/07 08:29:21;;;;;;;0.40;0.40;;;30.50;97.50;;;;;;4990906;28;20502;-73
2023/07/07 08:31:49;;;;;;;0.70;0.70;;;30.60;97.00;;;;;;4991045;28;20486;-72
2023/07/07 08:34:17;;;;;;;0.70;0.70;;;30.50;96.80;;;;;;4990269;28;20474;-72
2023/07/07 08:36:44;;;;;;;0.63;0.60;;;29.80;97.10;;;;;;4990438;28;20463;-72
2023/07/07 08:39:14;;;;;;;0.80;0.80;;;29.50;97.90;;;;;;4990224;28;20469;-72
2023/07/07 08:41:49;;;;;;;0.57;0.57;;;29.80;98.10;;;;;;4990270;28;20486;-71
2023/07/07 08:44:18;;;;;;;0.57;0.57;;;29.80;96.80;;;;;;4989965;28;20465;-71
2023/07/07 08:47:00;;;;;;;0.87;0.87;;;29.70;96.80;;;;;;4990402;28;20982;-72
2023/07/07 08:49:33;;;;;;;0.57;0.57;;;29.90;98.00;;;;;;4990598;28;20498;-72
2023/07/07 08:52:05;;;;;;;0.80;0.80;;;30.10;96.90;;;;;;4990295;28;20518;-73
2023/07/07 08:54:40;;;;;;;0.73;0.73;;;29.50;95.80;;;;;;4989618;28;20582;-73
2023/07/07 08:57:09;;;;;;;0.60;0.60;;;29.20;96.70;;;;;;4990373;28;20486;-72
2023/07/07 08:59:47;;;;;;;0.97;0.97;;;28.90;96.40;;;;;;4990699;28;20462;-72
2023/07/07 09:02:29;;;;;;;0.53;0.53;;;28.50;97.20;;;;;;4990781;28;20482;-72
2023/07/07 09:05:04;;;;;;;0.80;0.80;;;28.20;96.60;;;;;;4990542;28;20466;-72
2023/07/07 09:07:59;;;;;;;0.90;0.90;;;28.20;97.70;;;;;;4990320;28;20470;-72
2023/07/07 09:10:38;;;;;;;0.80;0.80;;;28.50;96.80;;;;;;4990746;28;20737;-72
2023/07/07 09:13:11;;;;;;;0.73;0.73;;;28.60;96.40;;;;;;4991260;28;21005;-72
2023/07/07 09:15:41;;;;;;;1.00;1.00;;;28.30;96.70;;;;;;4990652;28;20956;-74
2023/07/07 09:18:20;;;;;;;0.97;0.97;;;28.20;96.60;;;;;;4990353;28;20459;-71
2023/07/07 09:20:53;;;;;;;0.67;0.67;;;27.90;96.70;;;;;;4990574;28;20506;-72
2023/07/07 09:23:24;;;;;;;0.70;0.70;;;27.50;97.80;;;;;;4990539;28;20859;-71
2023/07/07 09:25:58;;;;;;;0.80;0.80;;;27.40;98.10;;;;;;4990066;28;20490;-72
2023/07/07 09:28:28;;;;;;;0.73;0.73;;;27.30;97.70;;;;;;4990638;28;20478;-73
2023/07/07 09:30:58;;;;;;;1.13;1.13;;;26.90;97.90;;;;;;4990307;28;20549;-73
2023/07/07 09:33:27;;;;;;;1.20;1.20;;;26.70;98.70;;;;;;4989732;28;20521;-73
2023/07/07 09:36:09;;;;;;;0.80;0.80;;;26.50;99.40;;;;;;4990133;28;20478;-72
2023/07/07 09:38:49;;;;;;;0.70;0.70;;;26.10;99.10;;;;;;4989835;28;20467;-71
2023/07/07 09:41:23;;;;;;;0.80;0.80;;;26.00;99.80;;;;;;4989765;28;20486;-72
2023/07/07 09:44:07;;;;;;;1.43;1.10;;;26.00;99.90;;;;;;4990410;28;20470;-72
2023/07/07 09:46:41;;;;;;;0.73;0.73;;;26.00;99.70;;;;;;4983590;28;20468;-71
2023/07/07 09:49:19;;;;;;;0.90;0.90;;;26.00;99.70;;;;;;4989994;28;20987;-70
2023/07/07 09:51:51;;;;;;;0.80;0.80;;;25.90;99.70;;;;;;4990133;28;20594;-71
2023/07/07 09:54:20;;;;;;;1.03;1.03;;;26.00;99.20;;;;;;4990548;28;20469;-72
2023/07/07 09:56:55;;;;;;;1.10;1.10;;;26.10;98.60;;;;;;4993978;28;20477;-72
2023/07/07 09:59:26;;;;;;;1.20;1.20;;;26.00;99.10;;;;;;4993760;28;20468;-73
2023/07/07 10:01:55;;;;;;;0.97;0.97;;;26.00;99.90;;;;;;4993393;28;21136;-72
2023/07/07 10:04:25;;;;;;;0.67;0.67;;;25.90;99.00;;;;;;4992850;28;20526;-72
2023/07/07 10:06:56;;;;;;;0.67;0.67;;;25.80;99.00;;;;;;4993523;28;20551;-72
2023/07/07 10:09:23;;;;;;;0.77;0.77;;;25.80;99.70;;;;;;4992957;28;20495;-72
2023/07/07 10:11:51;;;;;;;0.70;0.70;;;25.80;99.20;;;;;;4993155;28;20996;-72
2023/07/07 10:14:18;;;;;;;1.73;1.03;;;25.80;99.50;;;;;;4992933;28;20775;-72
2023/07/07 10:16:56;;;;;;;1.00;1.00;;;25.80;99.70;;;;;;4993313;28;20481;-71
2023/07/07 10:19:25;;;;;;;0.73;0.73;;;25.80;99.90;;;;;;4992817;28;20565;-71
2023/07/07 10:21:53;;;;;;;1.07;1.07;;;25.70;99.50;;;;;;4993088;28;20497;-72
2023/07/07 10:24:20;;;;;;;1.10;1.00;;;25.80;99.70;;;;;;5017352;23;20599;-70
2023/07/07 10:26:47;;;;;;;1.10;1.10;;;25.80;99.60;;;;;;5012558;28;20466;-70
2023/07/07 10:29:17;;;;;;;1.03;0.63;;;25.80;99.40;;;;;;5012679;28;20497;-70
2023/07/07 10:31:47;;;;;;;2.10;0.80;;;25.90;98.90;;;;;;5013243;28;20823;-71
2023/07/07 10:34:24;;;;;;;0.90;0.90;;;26.00;99.20;;;;;;5000988;28;20487;-71
2023/07/07 10:36:54;;;;;;;1.70;1.60;;;26.20;99.70;;;;;;4992870;28;20471;-70
2023/07/07 10:39:24;;;;;;;0.90;0.90;;;26.20;99.10;;;;;;4992642;28;20466;-70
2023/07/07 10:41:50;;;;;;;0.67;0.67;;;26.10;98.90;;;;;;4993447;28;20514;-70
2023/07/07 10:44:17;;;;;;;0.77;0.77;;;26.30;98.00;;;;;;4984595;28;20487;-70
2023/07/07 10:46:44;;;;;;;0.70;0.70;;;26.30;98.70;;;;;;4993153;28;20470;-70
2023/07/07 10:49:16;;;;;;;0.90;0.90;;;26.30;98.60;;;;;;4992651;28;20493;-71
2023/07/07 10:51:54;;;;;;;0.80;0.80;;;26.30;99.00;;;;;;4993084;28;20467;-70
2023/07/07 10:54:29;;;;;;;0.90;0.90;;;26.20;99.00;;;;;;4992718;28;20495;-70
2023/07/07 10:57:05;;;;;;;0.70;0.70;;;26.20;99.40;;;;;;4992981;28;20922;-69
2023/07/07 11:00:02;;;;;;;0.70;0.70;;;26.20;99.30;;;;;;4993275;28;20545;-69
2023/07/07 11:02:48;;;;;;;1.00;1.00;;;26.20;99.40;;;;;;4980522;28;20463;-70
2023/07/07 11:05:35;;;;;;;1.30;1.30;;;26.10;99.50;;;;;;4993069;28;20541;-69
2023/07/07 11:08:15;;;;;;;1.00;1.00;;;26.10;99.00;;;;;;4992924;28;20470;-69
2023/07/07 11:10:58;;;;;;;1.03;0.80;;;26.20;99.50;;;;;;4993005;28;20493;-70
2023/07/07 11:13:41;;;;;;;1.73;1.30;;;26.20;99.70;;;;;;4993072;28;20537;-70
2023/07/07 11:16:17;;;;;;;1.10;1.10;;;26.30;99.20;;;;;;4992980;28;20487;-69
2023/07/07 11:18:59;;;;;;;1.13;1.13;;;26.20;98.40;;;;;;4991632;28;20798;-69
2023/07/07 11:21:32;;;;;;;0.67;0.67;;;26.20;98.30;;;;;;4993093;28;20952;-69
2023/07/07 11:24:17;;;;;;;1.50;1.20;;;26.20;98.20;;;;;;4992313;28;20499;-70
2023/07/07 11:27:01;;;;;;;1.00;1.00;;;26.20;98.00;;;;;;4992163;28;20467;-69
2023/07/07 11:29:34;;;;;;;1.00;1.00;;;26.30;98.20;;;;;;4992228;28;20514;-69
2023/07/07 11:32:11;;;;;;;2.00;1.00;;;26.40;98.40;;;;;;4992231;28;20843;-69
2023/07/07 11:34:53;;;;;;;1.30;1.30;;;26.60;99.10;;;;;;4991519;28;20486;-70
2023/07/07 11:37:33;;;;;;;0.90;0.90;;;26.40;97.80;;;;;;4992335;28;20470;-70
2023/07/07 11:40:21;;;;;;;0.97;0.70;;;26.40;98.80;;;;;;4991814;28;20964;-70
2023/07/07 11:43:17;;;;;;;0.80;0.80;;;26.60;98.90;;;;;;4992176;28;20498;-70
2023/07/07 11:46:01;;;;;;;0.93;0.93;;;26.50;98.20;;;;;;4991654;28;20459;-70
2023/07/07 11:48:38;;;;;;;0.80;0.80;;;26.60;98.20;;;;;;4991785;28;20485;-70
2023/07/07 11:51:17;;;;;;;0.90;0.90;;;26.60;98.10;;;;;;4992067;28;20471;-70
2023/07/07 11:54:15;;;;;;;0.97;0.97;;;26.50;97.80;;;;;;4991993;28;20490;-69
2023/07/07 11:56:59;;;;;;;1.00;1.00;;;26.40;98.50;;;;;;4991911;28;20486;-70
2023/07/07 11:59:57;;;;;;;1.07;1.07;;;26.50;98.70;;;;;;4991730;28;20460;-70
2023/07/07 12:02:29;;;;;;;1.10;1.10;;;26.60;97.60;;;;;;4991521;28;20835;-70
2023/07/07 12:04:59;;;;;;;0.73;0.73;;;26.80;97.80;;;;;;4991550;28;20981;-70
2023/07/07 12:07:32;;;;;;;0.77;0.77;;;26.80;96.80;;;;;;4991932;28;20480;-70
2023/07/07 12:10:02;;;;;;;1.03;1.03;;;26.90;96.80;;;;;;4991305;28;20494;-70
2023/07/07 12:12:36;;;;;;;0.80;0.80;;;26.90;96.90;;;;;;4991630;28;20468;-70
2023/07/07 12:15:13;;;;;;;0.90;0.90;;;26.90;97.00;;;;;;4991093;28;20489;-70
2023/07/07 12:17:51;;;;;;;0.90;0.90;;;27.10;97.00;;;;;;4990126;28;20958;-70
2023/07/07 12:20:24;;;;;;;0.80;0.80;;;27.10;96.00;;;;;;4991434;28;20474;-70
2023/07/07 12:22:51;;;;;;;1.33;1.33;;;27.30;96.20;;;;;;4990748;28;20563;-70
2023/07/07 12:25:23;;;;;;;0.80;0.80;;;27.30;96.30;;;;;;4990072;28;20501;-70
2023/07/07 12:27:52;;;;;;;1.00;1.00;;;27.40;97.00;;;;;;4990670;28;20985;-70
2023/07/07 12:30:25;;;;;;;0.97;0.97;;;27.30;96.60;;;;;;4990666;28;20489;-70
2023/07/07 12:32:53;;;;;;;1.00;1.00;;;27.30;96.40;;;;;;4990432;28;20496;-70
2023/07/07 12:35:30;;;;;;;0.93;0.93;;;27.40;96.90;;;;;;4990452;28;20460;-70
2023/07/07 12:37:58;;;;;;;0.87;0.87;;;27.50;96.40;;;;;;4990632;28;20495;-70
2023/07/07 12:40:25;;;;;;;0.97;0.97;;;27.30;96.10;;;;;;4990520;28;20836;-70
2023/07/07 12:43:06;;;;;;;1.23;1.07;;;27.40;96.70;;;;;;4990662;28;20476;-70
2023/07/07 12:45:33;;;;;;;1.20;1.20;;;27.30;96.60;;;;;;4984059;28;20463;-70
2023/07/07 12:48:05;;;;;;;1.10;1.10;;;27.30;96.90;;;;;;4990047;28;20486;-70
2023/07/07 12:50:36;;;;;;;1.27;1.27;;;27.40;97.10;;;;;;4990466;28;20555;-70
2023/07/07 12:53:06;;;;;;;0.80;0.80;;;27.30;96.80;;;;;;4990924;28;20477;-69
2023/07/07 12:55:38;;;;;;;1.20;1.20;;;27.30;96.80;;;;;;4990571;28;20464;-69
2023/07/07 12:58:32;;;;;;;0.57;0.57;;;27.50;96.90;;;;;;4990827;28;20468;-69
2023/07/07 13:01:10;;;;;;;0.80;0.80;;;27.80;97.80;;;;;;4990803;28;20469;-69
2023/07/07 13:03:44;;;;;;;1.20;1.20;;;27.80;96.70;;;;;;4989925;28;20515;-70
2023/07/07 13:06:25;;;;;;;1.27;1.27;;;27.60;95.60;;;;;;4989776;28;20540;-69
2023/07/07 13:09:18;;;;;;;1.30;1.30;;;27.50;95.70;;;;;;4990562;28;20491;-70
2023/07/07 13:11:46;;;;;;;0.83;0.83;;;27.60;96.00;;;;;;4990748;28;20560;-69
2023/07/07 13:14:44;;;;;;;1.20;1.20;;;27.60;95.90;;;;;;4989889;28;20547;-69
2023/07/07 13:17:16;;;;;;;1.10;1.10;;;27.70;95.30;;;;;;4987764;28;20467;-69
2023/07/07 13:19:48;;;;;;;1.10;1.10;;;27.60;95.70;;;;;;4990021;28;20554;-69
2023/07/07 13:22:21;;;;;;;1.00;1.00;;;27.70;96.70;;;;;;4990272;28;20830;-69
2023/07/07 13:24:48;;;;;;;2.00;1.17;;;27.70;96.00;;;;;;4989261;28;21103;-69
2023/07/07 13:27:17;;;;;;;1.13;1.13;;;27.60;95.40;;;;;;4990505;28;20477;-69
2023/07/07 13:29:46;;;;;;;0.70;0.70;;;27.80;95.50;;;;;;4992036;28;20813;-69
2023/07/07 13:32:30;;;;;;;1.10;1.10;;;27.80;94.80;;;;;;4994052;28;20469;-69
2023/07/07 13:34:59;;;;;;;1.13;1.13;;;27.70;94.30;;;;;;4994109;28;20606;-69
2023/07/07 13:37:26;;;;;;;0.93;0.93;;;27.70;94.90;;;;;;4993999;28;20473;-69
2023/07/07 13:39:53;;;;;;;0.93;0.93;;;27.70;95.00;;;;;;4993793;28;20465;-69
2023/07/07 13:42:24;;;;;;;1.10;1.10;;;27.70;95.20;;;;;;4991001;28;20940;-69
2023/07/07 13:44:57;;;;;;;1.10;1.10;;;27.70;94.50;;;;;;4990390;28;20492;-69
2023/07/07 13:47:25;;;;;;;1.10;1.10;;;27.70;94.70;;;;;;4974589;28;20584;-69
2023/07/07 13:49:57;;;;;;;1.37;1.37;;;27.70;94.20;;;;;;4973832;28;21017;-69
2023/07/07 13:52:25;;;;;;;1.30;1.30;;;27.80;94.70;;;;;;4974549;28;20464;-69
2023/07/07 13:54:52;;;;;;;1.50;1.50;;;27.90;95.00;;;;;;4973386;28;21007;-69
2023/07/07 13:57:23;;;;;;;0.90;0.90;;;28.00;95.00;;;;;;4974344;28;20467;-69
2023/07/07 13:59:51;;;;;;;1.00;1.00;;;28.00;94.80;;;;;;4974027;28;20463;-69
2023/07/07 14:02:21;;;;;;;1.73;1.63;;;28.00;95.40;;;;;;4974600;28;20473;-69
2023/07/07 14:04:55;;;;;;;0.87;0.87;;;28.10;94.60;;;;;;4973328;28;20588;-69
2023/07/07 14:07:22;;;;;;;1.00;1.00;;;28.10;94.60;;;;;;4973857;28;20532;-69
2023/07/07 14:09:50;;;;;;;1.10;1.10;;;28.30;94.60;;;;;;4973420;28;20494;-69
2023/07/07 14:12:23;;;;;;;1.40;1.40;;;28.30;94.40;;;;;;4974132;28;20470;-69
2023/07/07 14:14:53;;;;;;;1.57;1.40;;;28.40;94.10;;;;;;4973711;28;21052;-69
2023/07/07 14:17:27;;;;;;;0.90;0.90;;;28.40;94.60;;;;;;4973984;28;20465;-70
2023/07/07 14:19:59;;;;;;;1.00;1.00;;;28.30;93.80;;;;;;4977988;28;20463;-70
2023/07/07 14:22:28;;;;;;;1.50;1.27;;;28.30;94.20;;;;;;4977926;28;20485;-69
2023/07/07 14:24:56;;;;;;;0.87;0.87;;;28.30;94.60;;;;;;4973106;28;20502;-69
2023/07/07 14:27:27;;;;;;;1.13;1.13;;;28.30;94.60;;;;;;4973660;28;20958;-68
2023/07/07 14:29:55;;;;;;;1.00;0.90;;;28.30;93.70;;;;;;4974392;28;21015;-69
2023/07/07 14:32:30;;;;;;;0.77;0.77;;;28.30;93.80;;;;;;4973848;28;20792;-68
2023/07/07 14:34:59;;;;;;;0.73;0.73;;;28.40;94.30;;;;;;4973379;28;20497;-68
2023/07/07 14:37:29;;;;;;;1.30;1.30;;;28.50;94.60;;;;;;4973430;28;20837;-68
2023/07/07 14:39:59;;;;;;;1.07;1.07;;;28.50;94.50;;;;;;4972700;28;20464;-68
2023/07/07 14:42:28;;;;;;;1.10;1.10;;;28.60;94.50;;;;;;4977047;28;20612;-68
2023/07/07 14:44:56;;;;;;;1.40;1.40;;;28.60;94.20;;;;;;4991855;28;20482;-68
2023/07/07 14:47:29;;;;;;;1.10;1.10;;;28.60;94.30;;;;;;4992762;28;20868;-68
2023/07/07 14:50:00;;;;;;;1.63;1.53;;;28.70;94.50;;;;;;4992717;28;20578;-68
2023/07/07 14:52:31;;;;;;;0.73;0.73;;;28.90;94.80;;;;;;4992596;28;20562;-68
2023/07/07 14:55:00;;;;;;;1.00;1.00;;;28.80;94.20;;;;;;4991938;28;20500;-69
2023/07/07 14:57:27;;;;;;;1.07;1.07;;;28.90;94.40;;;;;;4992323;28;20469;-68
2023/07/07 14:59:54;;;;;;;1.23;1.20;;;28.90;94.10;;;;;;4992607;28;20475;-70
2023/07/07 15:02:31;;;;;;;0.60;0.60;;;29.00;94.30;;;;;;4992415;28;20968;-69
2023/07/07 15:05:19;;;;;;;1.30;1.30;;;29.10;93.80;;;;;;4992137;28;20492;-70
2023/07/07 15:07:48;;;;;;;1.00;1.00;;;29.20;93.30;;;;;;4992180;28;20554;-70
2023/07/07 15:10:15;;;;;;;1.30;1.30;;;29.00;92.40;;;;;;4991882;28;20492;-70
2023/07/07 15:12:42;;;;;;;0.90;0.90;;;29.00;92.60;;;;;;4992521;28;20476;-69
2023/07/07 15:15:13;;;;;;;1.10;1.10;;;29.10;93.30;;;;;;4991845;28;20855;-71
2023/07/07 15:17:41;;;;;;;0.80;0.80;;;29.20;93.00;;;;;;4991859;28;20472;-70
2023/07/07 15:20:15;;;;;;;1.00;1.00;;;29.30;92.60;;;;;;4992631;28;20466;-69
2023/07/07 15:22:42;;;;;;;1.00;1.00;;;29.20;93.00;;;;;;4992811;28;20464;-69
2023/07/07 15:25:10;;;;;;;2.10;1.70;;;29.20;92.40;;;;;;4992049;28;20495;-68
2023/07/07 15:27:36;;;;;;;1.17;1.07;;;29.40;92.60;;;;;;4992231;28;20467;-68
2023/07/07 15:30:04;;;;;;;1.00;1.00;;;29.30;92.10;;;;;;4991911;28;20503;-68
2023/07/07 15:32:31;;;;;;;1.37;1.37;;;29.40;92.70;;;;;;4991980;28;20471;-69
2023/07/07 15:34:59;;;;;;;1.70;1.50;;;29.20;92.50;;;;;;4991091;28;20492;-69
2023/07/07 15:37:26;;;;;;;0.70;0.70;;;29.10;92.60;;;;;;4991826;28;20469;-68
2023/07/07 15:39:52;;;;;;;1.30;1.30;;;29.20;92.10;;;;;;4991277;28;20462;-68
2023/07/07 15:42:19;;;;;;;0.90;0.90;;;29.10;92.60;;;;;;4991679;28;20902;-68
2023/07/07 15:44:46;;;;;;;1.17;1.07;;;29.20;93.20;;;;;;4991624;28;21084;-70
2023/07/07 15:47:20;;;;;;;1.30;1.30;;;29.30;92.70;;;;;;4991737;28;20467;-68
2023/07/07 15:49:49;;;;;;;1.53;1.53;;;29.40;93.00;;;;;;4991768;28;20522;-68
2023/07/07 15:52:18;;;;;;;1.37;1.27;;;29.50;92.20;;;;;;4994763;28;20948;-68
2023/07/07 15:54:45;;;;;;;0.90;0.90;;;29.50;91.40;;;;;;4990747;28;20492;-67
2023/07/07 15:57:13;;;;;;;1.03;1.03;;;29.50;91.40;;;;;;4991371;28;20464;-67
2023/07/07 15:59:41;;;;;;;1.20;1.20;;;29.60;91.90;;;;;;4991233;28;20791;-67
2023/07/07 16:02:15;;;;;;;1.10;1.10;;;29.60;92.20;;;;;;4991117;28;20468;-68
2023/07/07 16:04:42;;;;;;;1.10;1.00;;;29.70;91.80;;;;;;4990399;28;20600;-68
2023/07/07 16:07:11;;;;;;;0.80;0.80;;;29.70;91.60;;;;;;4991249;28;20470;-69
2023/07/07 16:09:39;;;;;;;0.80;0.80;;;29.60;90.80;;;;;;4991108;28;20465;-67
2023/07/07 16:12:11;;;;;;;1.00;1.00;;;29.60;92.30;;;;;;4991192;28;20504;-67
2023/07/07 16:14:38;;;;;;;1.23;0.87;;;29.50;92.30;;;;;;4990594;28;20970;-68
2023/07/07 16:17:10;;;;;;;0.80;0.80;;;29.40;93.20;;;;;;4991242;28;20469;-69
2023/07/07 16:19:37;;;;;;;1.40;1.40;;;29.40;93.50;;;;;;4990700;28;20468;-69
2023/07/07 16:22:09;;;;;;;1.00;1.00;;;29.20;93.70;;;;;;4991134;28;20460;-68
2023/07/07 16:24:35;;;;;;;1.63;1.53;;;29.10;93.60;;;;;;4990141;28;20582;-68
2023/07/07 16:27:04;;;;;;;1.00;1.00;;;29.10;93.50;;;;;;4990775;28;20460;-67
2023/07/07 16:29:31;;;;;;;1.30;1.20;;;29.10;94.10;;;;;;4990565;28;20547;-67
2023/07/07 16:34:25;;;;;;;1.47;1.47;;;29.00;94.20;;;;;;5029646;23;20507;-71
2023/07/07 16:36:52;;;;;;;1.00;1.00;;;29.00;94.10;;;;;;5011399;28;20470;-70
2023/07/07 16:39:20;;;;;;;0.70;0.70;;;28.80;94.60;;;;;;5010798;28;20588;-72
2023/07/07 16:41:47;;;;;;;1.23;1.20;;;28.80;95.10;;;;;;5011088;28;20826;-71
2023/07/07 16:44:15;;;;;;;1.30;1.30;;;28.70;94.40;;;;;;4992479;28;20498;-71
2023/07/07 16:46:42;;;;;;;1.33;1.33;;;28.70;94.90;;;;;;4991129;28;20458;-71
2023/07/07 16:49:13;;;;;;;1.07;1.07;;;28.60;94.70;;;;;;4990560;28;20966;-70
2023/07/07 16:51:41;;;;;;;1.10;1.10;;;28.60;94.70;;;;;;4991285;28;20490;-70
2023/07/07 16:54:08;;;;;;;0.97;0.97;;;28.50;94.80;;;;;;4990339;28;20498;-70
2023/07/07 16:56:36;;;;;;;1.00;1.00;;;28.50;94.40;;;;;;4990584;28;20537;-71
2023/07/07 16:59:03;;;;;;;0.83;0.83;;;28.60;94.90;;;;;;4990804;28;20538;-70
2023/07/07 17:01:33;;;;;;;1.10;1.10;;;28.60;94.90;;;;;;4990680;28;20473;-70
2023/07/07 17:04:00;;;;;;;0.90;0.90;;;28.50;95.30;;;;;;4992510;28;20486;-70
2023/07/07 17:06:29;;;;;;;3.13;1.60;;;28.40;95.20;;;;;;4994609;28;20564;-70
2023/07/07 17:08:57;;;;;;;0.90;0.90;;;28.40;95.00;;;;;;4995098;28;20464;-70